createdAt,value
2023-05-07T00:00:24.955Z,21.87
2023-05-07T00:01:26.590Z,21.88
2023-05-07T00:02:23.866Z,21.92
2023-05-07T00:03:24.048Z,21.89
2023-05-07T00:04:24.109Z,21.90
2023-05-07T00:05:24.345Z,21.89
2023-05-07T00:06:23.889Z,21.88
2023-05-07T00:07:23.747Z,21.90
2023-05-07T00:08:23.789Z,21.88
2023-05-07T00:09:24.297Z,21.89
2023-05-07T00:10:24.380Z,21.88
2023-05-07T00:11:23.789Z,21.89
2023-05-07T00:12:24.241Z,21.93
2023-05-07T00:13:23.897Z,21.91
2023-05-07T00:14:23.780Z,21.92
2023-05-07T00:15:24.695Z,21.94
2023-05-07T00:16:24.467Z,21.94
2023-05-07T00:17:24.135Z,21.93
2023-05-07T00:18:23.602Z,21.89
2023-05-07T00:19:24.254Z,21.81
2023-05-07T00:20:24.119Z,21.80
2023-05-07T00:21:23.703Z,21.82
2023-05-07T00:22:24.529Z,21.85
2023-05-07T00:23:24.007Z,21.86
2023-05-07T00:24:23.803Z,21.86
2023-05-07T00:25:24.222Z,21.89
2023-05-07T00:26:23.881Z,21.88
2023-05-07T00:27:23.750Z,21.89
2023-05-07T00:28:24.128Z,21.88
2023-05-07T00:29:23.988Z,21.92
2023-05-07T00:30:24.336Z,21.89
2023-05-07T00:31:24.054Z,21.93
2023-05-07T00:32:23.714Z,21.92
2023-05-07T00:33:24.292Z,21.94
2023-05-07T00:34:23.766Z,21.93
2023-05-07T00:35:24.281Z,21.93
2023-05-07T00:36:23.964Z,21.92
2023-05-07T00:37:24.237Z,21.94
2023-05-07T00:38:23.755Z,21.94
2023-05-07T00:39:24.069Z,21.94
2023-05-07T00:40:23.863Z,21.94
2023-05-07T00:41:24.187Z,21.93
2023-05-07T00:42:23.742Z,21.95
2023-05-07T00:43:24.168Z,21.96
2023-05-07T00:44:23.821Z,21.95
2023-05-07T00:45:23.797Z,21.95
2023-05-07T00:46:23.806Z,21.94
2023-05-07T00:47:24.072Z,21.93
2023-05-07T00:48:23.771Z,21.93
2023-05-07T00:49:24.098Z,21.87
2023-05-07T00:50:23.971Z,21.88
2023-05-07T00:51:23.781Z,21.90
2023-05-07T00:52:24.007Z,21.89
2023-05-07T00:53:24.114Z,21.90
2023-05-07T00:54:24.359Z,21.89
2023-05-07T00:55:23.706Z,21.89
2023-05-07T00:56:24.141Z,21.90
2023-05-07T00:57:23.866Z,21.90
2023-05-07T00:58:24.431Z,21.91
2023-05-07T00:59:23.881Z,21.91
2023-05-07T01:00:24.953Z,21.89
2023-05-07T01:01:23.744Z,21.89
2023-05-07T01:02:24.452Z,21.92
2023-05-07T01:03:23.928Z,21.90
2023-05-07T01:04:24.071Z,21.88
2023-05-07T01:05:23.854Z,21.89
2023-05-07T01:06:23.761Z,21.90
2023-05-07T01:07:24.537Z,21.90
2023-05-07T01:08:24.263Z,21.89
2023-05-07T01:09:24.403Z,21.90
2023-05-07T01:10:23.926Z,21.93
2023-05-07T01:11:24.168Z,21.92
2023-05-07T01:12:23.929Z,21.89
2023-05-07T01:13:23.890Z,21.92
2023-05-07T01:14:23.538Z,21.90
2023-05-07T01:15:24.266Z,21.90
2023-05-07T01:16:23.494Z,21.91
2023-05-07T01:17:24.191Z,21.89
2023-05-07T01:18:23.783Z,21.88
2023-05-07T01:19:24.026Z,21.87
2023-05-07T01:20:23.703Z,21.83
2023-05-07T01:21:23.982Z,21.76
2023-05-07T01:22:24.414Z,21.73
2023-05-07T01:23:23.509Z,21.77
2023-05-07T01:24:23.709Z,21.75
2023-05-07T01:25:24.480Z,21.73
2023-05-07T01:26:23.740Z,21.72
2023-05-07T01:27:24.170Z,21.72
2023-05-07T01:28:23.777Z,21.72
2023-05-07T01:29:24.009Z,21.73
2023-05-07T01:30:24.094Z,21.75
2023-05-07T01:31:23.713Z,21.75
2023-05-07T01:32:24.488Z,21.76
2023-05-07T01:33:23.902Z,21.67
2023-05-07T01:34:24.113Z,21.65
2023-05-07T01:35:23.898Z,21.65
2023-05-07T01:36:24.303Z,21.60
2023-05-07T01:37:24.221Z,21.62
2023-05-07T01:38:23.841Z,21.60
2023-05-07T01:39:24.392Z,21.61
2023-05-07T01:40:24.095Z,21.62
2023-05-07T01:41:23.589Z,21.62
2023-05-07T01:42:23.992Z,21.60
2023-05-07T01:43:23.441Z,21.59
2023-05-07T01:44:23.774Z,21.59
2023-05-07T01:45:23.950Z,21.59
2023-05-07T01:46:23.742Z,21.57
2023-05-07T01:47:24.468Z,21.59
2023-05-07T01:48:23.648Z,21.60
2023-05-07T01:49:24.014Z,21.55
2023-05-07T01:50:23.657Z,21.55
2023-05-07T01:51:23.993Z,21.55
2023-05-07T01:52:24.456Z,21.57
2023-05-07T01:53:23.893Z,21.57
2023-05-07T01:54:23.880Z,21.56
2023-05-07T01:55:24.456Z,21.56
2023-05-07T01:56:24.429Z,21.58
2023-05-07T01:57:23.934Z,21.59
2023-05-07T01:58:23.719Z,21.57
2023-05-07T01:59:24.282Z,21.57
2023-05-07T02:00:24.977Z,21.59
2023-05-07T02:01:23.542Z,21.57
2023-05-07T02:02:23.966Z,21.59
2023-05-07T02:03:23.842Z,21.56
2023-05-07T02:04:23.408Z,21.58
2023-05-07T02:05:24.376Z,21.57
2023-05-07T02:06:24.005Z,21.57
2023-05-07T02:07:24.233Z,21.60
2023-05-07T02:08:23.751Z,21.60
2023-05-07T02:09:24.344Z,21.62
2023-05-07T02:10:24.494Z,21.63
2023-05-07T02:11:24.134Z,21.62
2023-05-07T02:12:23.730Z,21.64
2023-05-07T02:13:24.246Z,21.63
2023-05-07T02:14:23.633Z,21.64
2023-05-07T02:15:24.655Z,21.66
2023-05-07T02:16:24.023Z,21.65
2023-05-07T02:17:23.814Z,21.63
2023-05-07T02:18:23.369Z,21.65
2023-05-07T02:19:23.881Z,21.66
2023-05-07T02:20:24.698Z,21.64
2023-05-07T02:21:24.267Z,21.67
2023-05-07T02:22:23.857Z,21.66
2023-05-07T02:23:23.375Z,21.65
2023-05-07T02:24:24.010Z,21.64
2023-05-07T02:25:23.966Z,21.64
2023-05-07T02:26:23.802Z,21.58
2023-05-07T02:27:24.131Z,21.57
2023-05-07T02:28:23.830Z,21.56
2023-05-07T02:29:24.489Z,21.56
2023-05-07T02:30:24.360Z,21.56
2023-05-07T02:31:23.943Z,21.57
2023-05-07T02:32:37.833Z,21.56
2023-05-07T02:33:23.907Z,21.57
2023-05-07T02:34:42.859Z,21.55
2023-05-07T02:35:24.410Z,21.55
2023-05-07T02:36:23.843Z,21.54
2023-05-07T02:37:24.440Z,21.54
2023-05-07T02:38:23.959Z,21.53
2023-05-07T02:39:23.649Z,21.52
2023-05-07T02:40:24.444Z,21.50
2023-05-07T02:41:23.955Z,21.50
2023-05-07T02:42:23.828Z,21.49
2023-05-07T02:43:24.054Z,21.51
2023-05-07T02:44:23.752Z,21.52
2023-05-07T02:45:24.641Z,21.52
2023-05-07T02:46:24.220Z,21.52
2023-05-07T02:47:24.202Z,21.51
2023-05-07T02:48:23.995Z,21.51
2023-05-07T02:49:23.997Z,21.51
2023-05-07T02:50:24.521Z,21.52
2023-05-07T02:51:26.088Z,21.52
2023-05-07T02:52:24.113Z,21.54
2023-05-07T02:53:23.817Z,21.54
2023-05-07T02:54:24.449Z,21.52
2023-05-07T02:55:24.448Z,21.52
2023-05-07T02:56:24.148Z,21.51
2023-05-07T02:57:24.090Z,21.50
2023-05-07T02:58:24.062Z,21.50
2023-05-07T02:59:24.221Z,21.48
2023-05-07T03:00:25.432Z,21.49
2023-05-07T03:01:24.647Z,21.5
2023-05-07T03:02:24.647Z,21.47
2023-05-07T03:03:24.287Z,21.49
2023-05-07T03:04:24.257Z,21.5
2023-05-07T03:05:24.266Z,21.49
2023-05-07T03:06:24.000Z,21.51
2023-05-07T03:07:23.906Z,21.50
2023-05-07T03:08:24.429Z,21.53
2023-05-07T03:09:24.059Z,21.53
2023-05-07T03:10:24.052Z,21.53
2023-05-07T03:11:23.691Z,21.54
2023-05-07T03:12:24.409Z,21.51
2023-05-07T03:13:24.365Z,21.48
2023-05-07T03:14:23.962Z,21.46
2023-05-07T03:15:23.947Z,21.40
2023-05-07T03:16:23.973Z,21.34
2023-05-07T03:17:23.759Z,21.37
2023-05-07T03:18:23.589Z,21.36
2023-05-07T03:19:24.207Z,21.35
2023-05-07T03:20:23.754Z,21.32
2023-05-07T03:21:24.168Z,21.32
2023-05-07T03:22:23.938Z,21.32
2023-05-07T03:23:24.984Z,21.35
2023-05-07T03:24:23.624Z,21.36
2023-05-07T03:25:24.448Z,21.37
2023-05-07T03:26:23.601Z,21.37
2023-05-07T03:27:24.229Z,21.38
2023-05-07T03:28:23.903Z,21.42
2023-05-07T03:29:24.312Z,21.39
2023-05-07T03:30:24.187Z,21.40
2023-05-07T03:31:23.748Z,21.39
2023-05-07T03:32:24.444Z,21.40
2023-05-07T03:33:24.209Z,21.40
2023-05-07T03:34:24.124Z,21.38
2023-05-07T03:35:24.133Z,21.39
2023-05-07T03:36:24.129Z,21.40
2023-05-07T03:37:23.860Z,21.36
2023-05-07T03:38:23.638Z,21.36
2023-05-07T03:39:23.710Z,21.37
2023-05-07T03:40:24.121Z,21.36
2023-05-07T03:41:23.641Z,21.36
2023-05-07T03:42:24.495Z,21.36
2023-05-07T03:43:24.429Z,21.36
2023-05-07T03:44:24.563Z,21.36
2023-05-07T03:45:24.905Z,21.36
2023-05-07T03:46:23.577Z,21.36
2023-05-07T03:47:24.015Z,21.40
2023-05-07T03:48:24.148Z,21.38
2023-05-07T03:49:24.166Z,21.39
2023-05-07T03:50:24.381Z,21.40
2023-05-07T03:51:24.516Z,21.37
2023-05-07T03:52:24.413Z,21.38
2023-05-07T03:53:24.399Z,21.42
2023-05-07T03:54:24.497Z,21.39
2023-05-07T03:55:24.694Z,21.39
2023-05-07T03:56:23.831Z,21.40
2023-05-07T03:57:24.070Z,21.40
2023-05-07T03:58:24.127Z,21.39
2023-05-07T03:59:24.418Z,21.42
2023-05-07T04:00:25.219Z,21.39
2023-05-07T04:01:24.165Z,21.40
2023-05-07T04:02:24.169Z,21.33
2023-05-07T04:03:24.410Z,21.36
2023-05-07T04:04:24.743Z,21.33
2023-05-07T04:05:24.065Z,21.28
2023-05-07T04:06:23.764Z,21.26
2023-05-07T04:07:24.460Z,21.25
2023-05-07T04:08:24.261Z,21.25
2023-05-07T04:09:24.307Z,21.27
2023-05-07T04:10:24.399Z,21.28
2023-05-07T04:11:24.090Z,21.28
2023-05-07T04:12:23.897Z,21.29
2023-05-07T04:13:23.873Z,21.25
2023-05-07T04:14:24.239Z,21.28
2023-05-07T04:15:24.299Z,21.31
2023-05-07T04:16:23.971Z,21.32
2023-05-07T04:17:23.956Z,21.33
2023-05-07T04:18:24.071Z,21.35
2023-05-07T04:19:23.588Z,21.36
2023-05-07T04:20:24.372Z,21.37
2023-05-07T04:21:24.026Z,21.36
2023-05-07T04:22:24.120Z,21.33
2023-05-07T04:23:24.149Z,21.30
2023-05-07T04:24:23.941Z,21.30
2023-05-07T04:25:24.080Z,21.24
2023-05-07T04:26:23.732Z,21.23
2023-05-07T04:27:23.794Z,21.23
2023-05-07T04:28:23.761Z,21.21
2023-05-07T04:29:29.001Z,21.19
2023-05-07T04:30:24.515Z,21.18
2023-05-07T04:31:28.573Z,21.20
2023-05-07T04:32:24.355Z,21.25
2023-05-07T04:33:24.230Z,21.23
2023-05-07T04:34:23.923Z,21.13
2023-05-07T04:35:24.173Z,21.10
2023-05-07T04:36:24.276Z,21.12
2023-05-07T04:37:24.394Z,21.02
2023-05-07T04:38:24.358Z,20.98
2023-05-07T04:39:24.096Z,21.02
2023-05-07T04:40:24.070Z,21.09
2023-05-07T04:41:24.269Z,21.15
2023-05-07T04:42:24.160Z,21.12
2023-05-07T04:43:24.113Z,21.01
2023-05-07T04:44:23.986Z,20.98
2023-05-07T04:45:24.477Z,21.04
2023-05-07T04:46:24.602Z,21.05
2023-05-07T04:47:24.680Z,21.05
2023-05-07T04:48:24.441Z,21.09
2023-05-07T04:49:24.386Z,21.15
2023-05-07T04:50:24.922Z,21.22
2023-05-07T04:51:24.174Z,21.30
2023-05-07T04:52:27.237Z,21.35
2023-05-07T04:53:24.586Z,21.39
2023-05-07T04:54:24.487Z,21.45
2023-05-07T04:55:24.786Z,21.5
2023-05-07T04:56:24.725Z,21.55
2023-05-07T04:57:24.239Z,21.60
2023-05-07T04:58:24.193Z,21.66
2023-05-07T04:59:24.096Z,21.72
2023-05-07T05:00:25.157Z,21.75
2023-05-07T05:01:43.330Z,21.80
2023-05-07T05:02:24.718Z,21.86
2023-05-07T05:03:23.790Z,21.90
2023-05-07T05:04:23.897Z,21.94
2023-05-07T05:05:24.037Z,21.96
2023-05-07T05:06:23.973Z,21.99
2023-05-07T05:07:24.036Z,22.01
2023-05-07T05:08:24.275Z,22.03
2023-05-07T05:09:23.983Z,22.05
2023-05-07T05:10:24.852Z,22.10
2023-05-07T05:11:24.568Z,22.10
2023-05-07T05:12:24.342Z,22.12
2023-05-07T05:13:24.069Z,22.15
2023-05-07T05:14:24.233Z,22.18
2023-05-07T05:15:24.852Z,22.19
2023-05-07T05:16:24.255Z,22.21
2023-05-07T05:17:24.690Z,22.23
2023-05-07T05:18:23.565Z,22.29
2023-05-07T05:19:24.006Z,22.33
2023-05-07T05:20:24.429Z,22.38
2023-05-07T05:21:24.445Z,22.38
2023-05-07T05:22:24.315Z,22.41
2023-05-07T05:23:23.975Z,22.46
2023-05-07T05:24:24.048Z,22.49
2023-05-07T05:25:24.322Z,22.52
2023-05-07T05:26:24.407Z,22.55
2023-05-07T05:27:24.280Z,22.57
2023-05-07T05:28:24.115Z,22.62
2023-05-07T05:29:23.885Z,22.63
2023-05-07T05:30:24.472Z,22.65
2023-05-07T05:31:24.411Z,22.68
2023-05-07T05:32:24.509Z,22.70
2023-05-07T05:33:24.432Z,22.72
2023-05-07T05:34:24.357Z,22.74
2023-05-07T05:35:24.307Z,22.78
2023-05-07T05:36:24.677Z,22.81
2023-05-07T05:37:24.447Z,22.87
2023-05-07T05:38:24.393Z,22.89
2023-05-07T05:39:24.358Z,22.94
2023-05-07T05:40:24.430Z,22.98
2023-05-07T05:41:24.223Z,23.02
2023-05-07T05:42:24.189Z,23.06
2023-05-07T05:43:24.300Z,23.10
2023-05-07T05:44:24.351Z,23.19
2023-05-07T05:45:24.408Z,23.23
2023-05-07T05:46:24.340Z,23.27
2023-05-07T05:47:24.721Z,23.30
2023-05-07T05:48:23.914Z,23.37
2023-05-07T05:49:24.300Z,23.40
2023-05-07T05:50:24.383Z,23.44
2023-05-07T05:51:24.612Z,23.48
2023-05-07T05:52:24.561Z,23.54
2023-05-07T05:53:24.588Z,23.59
2023-05-07T05:54:23.860Z,23.66
2023-05-07T05:55:24.324Z,23.71
2023-05-07T05:56:24.489Z,23.77
2023-05-07T05:57:25.983Z,23.90
2023-05-07T05:58:24.759Z,24.02
2023-05-07T05:59:24.764Z,24.14
2023-05-07T06:00:24.944Z,24.27
2023-05-07T06:01:24.184Z,24.39
2023-05-07T06:02:24.830Z,24.47
2023-05-07T06:03:24.377Z,24.5
2023-05-07T06:04:24.877Z,24.47
2023-05-07T06:05:24.466Z,24.57
2023-05-07T06:06:24.698Z,24.68
2023-05-07T06:07:23.951Z,24.70
2023-05-07T06:08:24.421Z,24.71
2023-05-07T06:09:24.680Z,24.79
2023-05-07T06:10:24.782Z,24.81
2023-05-07T06:11:24.151Z,24.82
2023-05-07T06:12:24.421Z,24.91
2023-05-07T06:13:24.420Z,24.96
2023-05-07T06:14:24.381Z,24.92
2023-05-07T06:15:24.755Z,24.89
2023-05-07T06:16:24.278Z,24.90
2023-05-07T06:17:24.395Z,24.92
2023-05-07T06:18:24.615Z,24.91
2023-05-07T06:19:24.157Z,24.95
2023-05-07T06:20:24.455Z,24.96
2023-05-07T06:21:24.278Z,24.97
2023-05-07T06:22:24.633Z,24.98
2023-05-07T06:23:24.785Z,24.93
2023-05-07T06:24:24.586Z,24.94
2023-05-07T06:25:24.785Z,24.91
2023-05-07T06:26:24.026Z,24.93
2023-05-07T06:27:24.378Z,24.93
2023-05-07T06:28:24.645Z,24.95
2023-05-07T06:29:24.338Z,24.99
2023-05-07T06:30:24.778Z,25.02
2023-05-07T06:31:24.258Z,25.03
2023-05-07T06:32:24.624Z,25.04
2023-05-07T06:33:23.905Z,25.05
2023-05-07T06:34:24.120Z,25.07
2023-05-07T06:35:24.197Z,25.11
2023-05-07T06:36:24.108Z,25.13
2023-05-07T06:37:24.263Z,25.18
2023-05-07T06:38:24.468Z,25.20
2023-05-07T06:39:24.721Z,25.23
2023-05-07T06:40:24.640Z,25.26
2023-05-07T06:41:23.819Z,25.25
2023-05-07T06:42:23.857Z,25.27
2023-05-07T06:43:24.005Z,25.29
2023-05-07T06:44:23.950Z,25.32
2023-05-07T06:45:24.242Z,25.29
2023-05-07T06:46:24.180Z,25.29
2023-05-07T06:47:24.623Z,25.29
2023-05-07T06:48:24.656Z,25.31
2023-05-07T06:49:24.876Z,25.27
2023-05-07T06:50:24.978Z,25.31
2023-05-07T06:51:24.187Z,25.31
2023-05-07T06:52:24.409Z,25.26
2023-05-07T06:53:24.314Z,25.20
2023-05-07T06:54:24.453Z,25.23
2023-05-07T06:55:24.953Z,25.22
2023-05-07T06:56:24.041Z,25.26
2023-05-07T06:57:24.563Z,25.28
2023-05-07T06:58:24.468Z,25.30
2023-05-07T06:59:24.962Z,25.30
2023-05-07T07:00:24.896Z,25.30
2023-05-07T07:01:24.320Z,25.36
2023-05-07T07:02:29.786Z,25.33
2023-05-07T07:03:23.927Z,25.32
2023-05-07T07:04:24.839Z,25.40
2023-05-07T07:05:24.285Z,25.46
2023-05-07T07:06:24.420Z,25.54
2023-05-07T07:07:24.713Z,25.55
2023-05-07T07:08:24.727Z,25.63
2023-05-07T07:09:24.288Z,25.67
2023-05-07T07:10:32.974Z,25.68
2023-05-07T07:11:24.286Z,25.73
2023-05-07T07:12:24.710Z,25.76
2023-05-07T07:13:24.043Z,25.80
2023-05-07T07:14:24.174Z,25.87
2023-05-07T07:15:24.372Z,25.96
2023-05-07T07:16:38.441Z,25.96
2023-05-07T07:17:24.701Z,25.97
2023-05-07T07:18:24.304Z,26.00
2023-05-07T07:19:24.345Z,26.00
2023-05-07T07:20:38.402Z,26.06
2023-05-07T07:21:24.205Z,26.04
2023-05-07T07:22:24.554Z,26.07
2023-05-07T07:23:24.527Z,26.04
2023-05-07T07:24:24.583Z,26.03
2023-05-07T07:25:25.064Z,26.10
2023-05-07T07:26:24.192Z,26.06
2023-05-07T07:27:24.750Z,26.04
2023-05-07T07:28:24.052Z,25.99
2023-05-07T07:29:24.212Z,26.03
2023-05-07T07:30:24.804Z,26.04
2023-05-07T07:31:24.269Z,26.02
2023-05-07T07:32:25.127Z,26.01
2023-05-07T07:33:23.953Z,26.05
2023-05-07T07:34:24.460Z,26.10
2023-05-07T07:35:25.754Z,26.12
2023-05-07T07:36:29.476Z,26.10
2023-05-07T07:37:23.874Z,26.09
2023-05-07T07:38:24.013Z,26.07
2023-05-07T07:39:24.464Z,26.08
2023-05-07T07:40:24.637Z,26.13
2023-05-07T07:41:24.484Z,26.11
2023-05-07T07:42:24.349Z,26.18
2023-05-07T07:43:24.293Z,26.22
2023-05-07T07:44:24.040Z,26.22
2023-05-07T07:45:24.364Z,26.28
2023-05-07T07:46:24.311Z,26.33
2023-05-07T07:47:24.695Z,26.37
2023-05-07T07:48:24.186Z,26.39
2023-05-07T07:49:24.193Z,26.44
2023-05-07T07:50:39.983Z,26.41
2023-05-07T07:51:24.335Z,26.48
2023-05-07T07:52:24.679Z,26.54
2023-05-07T07:53:24.064Z,26.61
2023-05-07T07:54:24.307Z,26.67
2023-05-07T07:55:24.892Z,26.66
2023-05-07T07:56:24.243Z,26.63
2023-05-07T07:57:24.689Z,26.65
2023-05-07T07:58:24.198Z,26.70
2023-05-07T07:59:24.479Z,26.71
2023-05-07T08:00:25.811Z,26.72
2023-05-07T08:01:24.229Z,26.75
2023-05-07T08:02:24.990Z,26.80
2023-05-07T08:03:24.618Z,26.82
2023-05-07T08:04:24.462Z,26.91
2023-05-07T08:05:24.400Z,26.96
2023-05-07T08:06:24.548Z,26.99
2023-05-07T08:07:24.159Z,27.03
2023-05-07T08:08:24.359Z,27.06
2023-05-07T08:09:24.376Z,27.10
2023-05-07T08:10:24.952Z,27.14
2023-05-07T08:11:24.629Z,27.18
2023-05-07T08:12:24.336Z,27.20
2023-05-07T08:13:24.641Z,27.20
2023-05-07T08:14:23.709Z,27.12
2023-05-07T08:15:24.353Z,27.14
2023-05-07T08:16:24.646Z,27.17
2023-05-07T08:17:24.112Z,27.13
2023-05-07T08:18:24.322Z,27.32
2023-05-07T08:19:24.488Z,27.26
2023-05-07T08:20:25.012Z,27.26
2023-05-07T08:21:24.290Z,27.27
2023-05-07T08:22:24.291Z,27.32
2023-05-07T08:23:24.512Z,27.43
2023-05-07T08:24:24.727Z,27.5
2023-05-07T08:25:24.981Z,27.54
2023-05-07T08:26:23.934Z,27.62
2023-05-07T08:27:24.114Z,27.68
2023-05-07T08:28:24.070Z,27.73
2023-05-07T08:29:24.289Z,27.82
2023-05-07T08:30:24.763Z,27.92
2023-05-07T08:31:23.867Z,27.97
2023-05-07T08:32:24.263Z,27.99
2023-05-07T08:33:24.830Z,28.03
2023-05-07T08:34:24.341Z,28.06
2023-05-07T08:35:24.519Z,28.10
2023-05-07T08:36:24.516Z,28.14
2023-05-07T08:37:24.419Z,28.26
2023-05-07T08:38:24.808Z,28.31
2023-05-07T08:39:24.676Z,28.43
2023-05-07T08:40:24.469Z,28.48
2023-05-07T08:41:24.548Z,28.50
2023-05-07T08:42:25.147Z,28.56
2023-05-07T08:43:24.006Z,28.62
2023-05-07T08:44:24.551Z,28.68
2023-05-07T08:45:24.902Z,28.64
2023-05-07T08:46:24.152Z,28.63
2023-05-07T08:47:24.788Z,28.68
2023-05-07T08:48:24.171Z,28.61
2023-05-07T08:49:24.456Z,28.58
2023-05-07T08:50:24.922Z,28.59
2023-05-07T08:51:24.194Z,28.64
2023-05-07T08:52:24.339Z,28.72
2023-05-07T08:53:24.584Z,28.79
2023-05-07T08:54:24.271Z,28.81
2023-05-07T08:55:25.049Z,28.89
2023-05-07T08:56:24.647Z,28.88
2023-05-07T08:57:24.189Z,28.85
2023-05-07T08:58:24.648Z,28.81
2023-05-07T08:59:24.412Z,28.77
2023-05-07T09:00:24.974Z,28.80
2023-05-07T09:01:24.355Z,28.74
2023-05-07T09:02:24.862Z,28.70
2023-05-07T09:03:24.189Z,28.64
2023-05-07T09:04:24.670Z,28.63
2023-05-07T09:05:24.293Z,28.57
2023-05-07T09:06:24.650Z,28.61
2023-05-07T09:07:24.010Z,28.62
2023-05-07T09:08:24.400Z,28.59
2023-05-07T09:09:24.601Z,28.57
2023-05-07T09:10:24.283Z,28.58
2023-05-07T09:11:24.369Z,28.62
2023-05-07T09:12:24.731Z,28.59
2023-05-07T09:13:24.609Z,28.59
2023-05-07T09:14:24.638Z,28.55
2023-05-07T09:15:24.342Z,28.59
2023-05-07T09:16:24.410Z,28.56
2023-05-07T09:17:24.837Z,28.53
2023-05-07T09:18:24.284Z,28.51
2023-05-07T09:19:29.951Z,28.53
2023-05-07T09:20:24.795Z,28.55
2023-05-07T09:21:29.220Z,28.54
2023-05-07T09:22:24.756Z,28.55
2023-05-07T09:23:24.265Z,28.59
2023-05-07T09:24:24.858Z,28.51
2023-05-07T09:25:29.731Z,28.57
2023-05-07T09:26:24.437Z,28.60
2023-05-07T09:27:24.962Z,28.62
2023-05-07T09:28:24.395Z,28.67
2023-05-07T09:29:24.670Z,28.69
2023-05-07T09:30:24.694Z,28.70
2023-05-07T09:31:24.179Z,28.70
2023-05-07T09:32:24.619Z,28.70
2023-05-07T09:33:24.117Z,28.73
2023-05-07T09:34:24.458Z,28.86
2023-05-07T09:35:32.272Z,28.95
2023-05-07T09:36:24.538Z,28.95
2023-05-07T09:37:24.677Z,28.93
2023-05-07T09:38:24.039Z,28.90
2023-05-07T09:39:24.245Z,28.89
2023-05-07T09:40:24.688Z,28.87
2023-05-07T09:41:24.005Z,28.86
2023-05-07T09:42:24.445Z,28.85
2023-05-07T09:43:24.582Z,28.76
2023-05-07T09:44:24.209Z,28.81
2023-05-07T09:45:25.101Z,28.88
2023-05-07T09:46:24.272Z,28.95
2023-05-07T09:47:24.822Z,29.00
2023-05-07T09:48:24.309Z,28.97
2023-05-07T09:49:24.498Z,29.09
2023-05-07T09:50:24.776Z,29.03
2023-05-07T09:51:24.348Z,28.97
2023-05-07T09:52:24.500Z,28.92
2023-05-07T09:53:23.818Z,28.93
2023-05-07T09:54:24.220Z,28.95
2023-05-07T09:55:24.986Z,28.98
2023-05-07T09:56:24.379Z,29.06
2023-05-07T09:57:24.123Z,29.09
2023-05-07T09:58:24.955Z,29.10
2023-05-07T09:59:24.316Z,29.07
2023-05-07T10:00:25.298Z,29.06
2023-05-07T10:01:24.771Z,29.04
2023-05-07T10:02:24.232Z,29.07
2023-05-07T10:03:24.213Z,29.12
2023-05-07T10:04:24.851Z,29.12
2023-05-07T10:05:24.394Z,29.17
2023-05-07T10:06:24.032Z,29.22
2023-05-07T10:07:24.319Z,29.22
2023-05-07T10:08:24.500Z,29.24
2023-05-07T10:09:24.142Z,29.22
2023-05-07T10:10:24.711Z,29.22
2023-05-07T10:11:24.248Z,29.19
2023-05-07T10:12:24.500Z,29.17
2023-05-07T10:13:24.388Z,29.12
2023-05-07T10:14:24.484Z,29.14
2023-05-07T10:15:25.066Z,29.15
2023-05-07T10:16:24.366Z,29.14
2023-05-07T10:17:24.961Z,29.19
2023-05-07T10:18:24.933Z,29.22
2023-05-07T10:19:25.053Z,29.30
2023-05-07T10:20:24.814Z,29.48
2023-05-07T10:21:24.183Z,29.56
2023-05-07T10:22:24.221Z,29.52
2023-05-07T10:23:24.303Z,29.53
2023-05-07T10:24:24.494Z,29.49
2023-05-07T10:25:24.592Z,29.5
2023-05-07T10:26:23.983Z,29.5
2023-05-07T10:27:24.526Z,29.53
2023-05-07T10:28:24.098Z,29.57
2023-05-07T10:29:24.168Z,29.63
2023-05-07T10:30:27.402Z,29.67
2023-05-07T10:31:24.222Z,29.63
2023-05-07T10:32:24.740Z,29.69
2023-05-07T10:33:24.476Z,29.76
2023-05-07T10:34:25.084Z,29.73
2023-05-07T10:35:24.825Z,29.70
2023-05-07T10:36:24.683Z,29.63
2023-05-07T10:37:24.422Z,29.61
2023-05-07T10:38:24.922Z,29.62
2023-05-07T10:39:24.528Z,29.61
2023-05-07T10:40:24.194Z,29.62
2023-05-07T10:41:24.174Z,29.66
2023-05-07T10:42:24.485Z,29.71
2023-05-07T10:43:24.770Z,29.75
2023-05-07T10:44:24.174Z,29.78
2023-05-07T10:45:25.361Z,29.83
2023-05-07T10:46:24.903Z,29.96
2023-05-07T10:47:25.030Z,29.96
2023-05-07T10:48:30.333Z,29.97
2023-05-07T10:49:24.798Z,30.02
2023-05-07T10:50:24.794Z,30.06
2023-05-07T10:51:24.189Z,30.10
2023-05-07T10:52:24.585Z,30.14
2023-05-07T10:53:24.324Z,30.15
2023-05-07T10:54:24.871Z,30.24
2023-05-07T10:55:24.651Z,30.18
2023-05-07T10:56:24.106Z,30.14
2023-05-07T10:57:24.893Z,30.18
2023-05-07T10:58:31.470Z,30.21
2023-05-07T10:59:24.894Z,30.18
2023-05-07T11:00:37.904Z,30.17
2023-05-07T11:01:24.428Z,30.15
2023-05-07T11:02:24.434Z,30.10
2023-05-07T11:03:24.455Z,30.08
2023-05-07T11:04:23.875Z,30.07
2023-05-07T11:06:29.283Z,29.95
2023-05-07T11:07:24.853Z,29.91
2023-05-07T11:08:24.541Z,29.93
2023-05-07T11:09:24.151Z,29.88
2023-05-07T11:10:24.347Z,29.81
2023-05-07T11:11:24.400Z,29.77
2023-05-07T11:12:24.457Z,29.70
2023-05-07T11:13:24.466Z,29.68
2023-05-07T11:14:24.902Z,29.61
2023-05-07T11:15:25.063Z,29.49
2023-05-07T11:16:24.494Z,29.44
2023-05-07T11:17:24.406Z,29.35
2023-05-07T11:18:24.585Z,29.21
2023-05-07T11:19:24.747Z,29.11
2023-05-07T11:20:24.875Z,29.01
2023-05-07T11:21:24.359Z,28.82
2023-05-07T11:22:24.732Z,28.64
2023-05-07T11:23:24.104Z,28.53
2023-05-07T11:24:24.343Z,28.38
2023-05-07T11:25:24.529Z,28.29
2023-05-07T11:26:24.236Z,28.25
2023-05-07T11:27:24.750Z,28.18
2023-05-07T11:28:24.311Z,28.01
2023-05-07T11:29:24.609Z,27.86
2023-05-07T11:30:24.638Z,27.69
2023-05-07T11:31:24.254Z,27.70
2023-05-07T11:32:24.708Z,27.60
2023-05-07T11:33:24.533Z,27.46
2023-05-07T11:34:24.760Z,27.36
2023-05-07T11:35:24.761Z,27.36
2023-05-07T11:36:24.485Z,27.33
2023-05-07T11:37:24.365Z,27.19
2023-05-07T11:38:25.013Z,26.98
2023-05-07T11:39:24.419Z,26.90
2023-05-07T11:40:24.816Z,26.86
2023-05-07T11:41:24.357Z,26.82
2023-05-07T11:42:24.871Z,26.69
2023-05-07T11:43:24.880Z,26.62
2023-05-07T11:44:24.896Z,26.64
2023-05-07T11:45:24.991Z,26.68
2023-05-07T11:46:24.382Z,26.70
2023-05-07T11:47:25.047Z,26.69
2023-05-07T11:48:24.322Z,26.69
2023-05-07T11:49:24.915Z,26.73
2023-05-07T11:50:24.179Z,26.79
2023-05-07T11:51:24.529Z,26.81
2023-05-07T11:52:24.088Z,26.76
2023-05-07T11:53:24.906Z,26.78
2023-05-07T11:54:32.595Z,26.82
2023-05-07T11:55:25.192Z,26.78
2023-05-07T11:56:24.493Z,26.79
2023-05-07T11:57:24.890Z,26.82
2023-05-07T11:58:24.637Z,26.80
2023-05-07T11:59:24.378Z,26.83
2023-05-07T12:00:33.494Z,26.84
2023-05-07T12:01:24.973Z,26.88
2023-05-07T12:02:38.603Z,26.97
2023-05-07T12:03:24.572Z,26.95
2023-05-07T12:04:24.697Z,26.81
2023-05-07T12:05:24.992Z,26.70
2023-05-07T12:06:24.494Z,26.72
2023-05-07T12:07:24.907Z,26.73
2023-05-07T12:08:24.349Z,26.76
2023-05-07T12:09:24.868Z,26.80
2023-05-07T12:10:38.602Z,26.78
2023-05-07T12:11:24.885Z,26.82
2023-05-07T12:12:24.638Z,26.85
2023-05-07T12:13:24.166Z,26.92
2023-05-07T12:14:25.029Z,26.95
2023-05-07T12:15:25.101Z,27.09
2023-05-07T12:16:24.732Z,27.19
2023-05-07T12:17:24.252Z,27.10
2023-05-07T12:18:24.638Z,27.04
2023-05-07T12:19:24.917Z,27.09
2023-05-07T12:20:24.663Z,27.07
2023-05-07T12:21:24.304Z,27.04
2023-05-07T12:22:24.700Z,26.94
2023-05-07T12:23:24.137Z,27.00
2023-05-07T12:24:24.412Z,27.05
2023-05-07T12:25:24.590Z,26.98
2023-05-07T12:26:24.205Z,26.92
2023-05-07T12:27:24.676Z,26.94
2023-05-07T12:28:24.326Z,26.95
2023-05-07T12:29:24.561Z,26.96
2023-05-07T12:30:46.347Z,27
2023-05-07T12:31:24.181Z,27
2023-05-07T12:32:24.829Z,26.96
2023-05-07T12:33:24.338Z,26.96
2023-05-07T12:34:24.863Z,27
2023-05-07T12:35:24.388Z,26.93
2023-05-07T12:36:24.546Z,26.95
2023-05-07T12:37:24.215Z,26.93
2023-05-07T12:38:24.623Z,26.85
2023-05-07T12:39:24.578Z,26.78
2023-05-07T12:40:24.991Z,26.79
2023-05-07T12:41:24.198Z,26.73
2023-05-07T12:42:24.852Z,26.65
2023-05-07T12:43:24.104Z,26.77
2023-05-07T12:44:24.822Z,26.86
2023-05-07T12:45:24.735Z,26.79
2023-05-07T12:46:24.427Z,26.74
2023-05-07T12:47:25.032Z,26.64
2023-05-07T12:48:24.534Z,26.60
2023-05-07T12:49:25.414Z,26.61
2023-05-07T12:50:24.681Z,26.57
2023-05-07T12:51:24.532Z,26.56
2023-05-07T12:52:24.576Z,26.53
2023-05-07T12:53:24.233Z,26.5
2023-05-07T12:54:24.557Z,26.46